NEODyS-2

Near Earth Objects - Dynamic Site
NEODyS ∴ Observatories ∴ Site 691 ∴ Obs & residuals
Contact »
691  ▹ 
OBSERVATIONS AND RESIDUALS

691-Steward Observatory, Kitt Peak-Spacewatch

Detections | Residuals | Detections & Residuals

[1-200] [201-400] [401-600] [601-800] [801-1000] [1001-1200] [1201-1400] [1401-1600] [1601-1800] [1801-2000] [2001-2200] [2201-2400] [2401-2600] [2601-2800] [2801-3000] [3001-3200] [3201-3400] [3401-3600] [3601-3800] [3801-4000] [4001-4200] [4201-4400] [4401-4600] [4601-4800] [4801-5000] [5001-5200] [5201-5400] [5401-5600] [5601-5800] [5801-6000] [6001-6200] [6201-6400] [6401-6600] [6601-6800] [6801-7000] [7001-7200] [7201-7400] [7401-7600] [7601-7800] [7801-8000] [8001-8200] [8201-8400] [8401-8600] [8601-8800] [8801-9000] [9001-9200] [9201-9400] [9401-9600] [9601-9800] [9801-10000] [10001-10200] [10201-10400] [10401-10600] [10601-10800] [10801-11000] [11001-11200] [11201-11400] [11401-11600] [11601-11800] [11801-12000] [12001-12200] [12201-12400] [12401-12600] [12601-12800] [12801-13000] [13001-13200] [13201-13400] [13401-13600] [13601-13800] [13801-14000] [14001-14200] [14201-14400] [14401-14600] [14601-14800] [14801-15000] [15001-15200] [15201-15400] [15401-15600] [15601-15800] [15801-16000] [16001-16200] [16201-16400] [16401-16600] [16601-16800] [16801-17000] [17001-17200] [17201-17400] [17401-17600] [17601-17800] [17801-18000] [18001-18200] [18201-18400] [18401-18600] [18601-18800] [18801-19000] [19001-19200] [19201-19400] [19401-19600] [19601-19800] [19801-20000] [20001-20200] [20201-20400] [20401-20600] [20601-20800] [20801-21000] [21001-21200] [21201-21400] [21401-21600] [21601-21800] [21801-22000] [22001-22200] [22201-22400] [22401-22600] [22601-22800] [22801-23000] [23001-23200] [23201-23400] [23401-23600] [23601-23800] [23801-24000] [24001-24200] [24201-24400] [24401-24600] [24601-24800] [24801-25000] [25001-25200] [25201-25400] [25401-25600] [25601-25800] [25801-26000] [26001-26200] [26201-26400] [26401-26600] [26601-26800] [26801-27000] [27001-27200] [27201-27400] [27401-27600] [27601-27800] [27801-28000] [28001-28200] [28201-28400] [28401-28600] [28601-28800] [28801-29000] [29001-29200] [29201-29400] [29401-29600] [29601-29800] [29801-30000] [30001-30200] [30201-30400] [30401-30600] [30601-30800] [30801-31000] [31001-31200] [31201-31400] [31401-31600] [31601-31800] [31801-32000] [32001-32200] [32201-32400] [32401-32600] [32601-32800] [32801-33000] [33001-33200] [33201-33400] [33401-33600] [33601-33800] [33801-34000] [34001-34200] [34201-34400] [34401-34600] [34601-34800] [34801-35000] [35001-35200] [35201-35400] [35401-35600] [35601-35800] [35801-36000] [36001-36200] [36201-36400] [36401-36600] [36601-36800] [36801-37000] [37001-37200] [37201-37400] [37401-37600] [37601-37800] [37801-38000] [38001-38200] [38201-38400] [38401-38600] [38601-38800] [38801-39000] [39001-39200] [39201-39400] [39401-39600] [39601-39800] [39801-40000] [40001-40200] [40201-40400] [40401-40600] [40601-40800] [40801-41000] [41001-41200] [41201-41400] [41401-41600] [41601-41800] [41801-42000] [42001-42200] [42201-42400] [42401-42600] [42601-42800] [42801-43000] [43001-43200] [43201-43400] [43401-43600] [43601-43800] [43801-44000] [44001-44200] [44201-44400] [44401-44600] [44601-44800] [44801-45000] [45001-45200] [45201-45400] [45401-45600] [45601-45800] [45801-46000] [46001-46200] [46201-46400] [46401-46600] [46601-46800] [46801-47000] [47001-47200] [47201-47400] [47401-47600] [47601-47800] [47801-48000] [48001-48200] [48201-48400] [48401-48600] [48601-48800] [48801-49000] [49001-49200] [49201-49400] [49401-49600] [49601-49800] [49801-50000] [50001-50200] [50201-50388]

Designation T Tech N Date Right Ascension Declination Apparent Magnitude Star Catalog Site code χ Used A Used M
yr-mo-day precision hr:min:sec precision rms F bias residual deg min sec precision rms F bias residual mag/col rms residual
2018GN4 O C K 2018-04-21.28190 1.000E-05 11:30:30.700 1.500E-01 0.500 F 0.279 -0.298 +00° 48' 26.10" 1.000E-01 0.500 F 0.089 -0.085 o 691 0.67 Yes No
2018GW3 O C K 2018-04-21.29301 1.000E-05 11:45:03.330 1.500E-01 0.500 F 0.177 0.140 +25° 53' 21.40" 1.000E-01 0.500 F 0.295 0.196 o 691 0.50 Yes No
2018GW3 O C K 2018-04-21.30017 1.000E-05 11:45:03.750 1.500E-01 0.500 F 0.177 -0.162 +25° 54' 33.80" 1.000E-01 0.500 F 0.295 0.591 o 691 1.27 Yes No
2018GW3 O C K 2018-04-21.30733 1.000E-05 11:45:04.220 1.500E-01 0.500 F 0.177 0.116 +25° 55' 44.70" 1.000E-01 0.500 F 0.295 -0.432 o 691 0.92 Yes No
2016OY2 O C K 2018-04-21.31834 1.000E-05 14:53:36.200 1.500E-01 0.500 F 0.351 0.173 -27° 21' 32.80" 1.000E-01 0.500 F 0.227 0.036 o 691 0.36 Yes No
2016OY2 O C K 2018-04-21.32706 1.000E-05 14:53:35.270 1.500E-01 0.500 F 0.351 0.305 -27° 21' 36.00" 1.000E-01 0.500 F 0.227 0.009 o 691 0.62 Yes No
2016OY2 O C K 2018-04-21.33575 1.000E-05 14:53:34.290 1.500E-01 0.500 F 0.351 -0.267 -27° 21' 38.70" 1.000E-01 0.500 F 0.227 0.462 o 691 1.08 Yes No
2018FF1 O C K 2018-04-21.38924 1.000E-05 14:19:02.070 1.500E-01 0.500 F 0.019 -0.194 +24° 23' 01.30" 1.000E-01 0.500 F 0.180 -0.022 o 691 0.41 Yes No
2018FF1 O C K 2018-04-21.40014 1.000E-05 14:19:03.730 1.500E-01 0.500 F 0.019 0.018 +24° 23' 12.70" 1.000E-01 0.500 F 0.180 -0.222 o 691 0.47 Yes No
2018FF1 O C K 2018-04-21.41103 1.000E-05 14:19:05.330 1.500E-01 0.500 F 0.019 -0.650 +24° 23' 24.50" 1.000E-01 0.500 F 0.180 0.067 o 691 1.38 Yes No
2018GZ1 O C K 2018-04-21.42190 1.000E-05 14:27:09.210 1.500E-01 0.500 F 0.061 -0.084 +15° 24' 17.40" 1.000E-01 0.500 F 0.234 -0.188 o 691 0.45 Yes No
2018GZ1 O C K 2018-04-21.43028 1.000E-05 14:27:10.100 1.500E-01 0.500 F 0.061 -0.459 +15° 24' 01.90" 1.000E-01 0.500 F 0.234 -0.013 o 691 1.01 Yes No
2018GZ1 O C K 2018-04-21.43865 1.000E-05 14:27:11.070 1.500E-01 0.500 F 0.061 0.263 +15° 23' 46.20" 1.000E-01 0.500 F 0.234 -0.030 o 691 0.58 Yes No
2018GM4 O C K 2018-04-21.44887 1.000E-05 17:03:03.960 1.500E-01 0.500 F 0.035 0.331 +18° 34' 13.80" 1.000E-01 0.500 F 0.274 0.071 o 691 0.68 Yes No
2018GM4 O C K 2018-04-21.45752 1.000E-05 17:03:03.490 1.500E-01 0.500 F 0.035 0.234 +18° 34' 19.30" 1.000E-01 0.500 F 0.274 -0.087 o 691 0.50 Yes No
2018GM4 O C K 2018-04-21.46614 1.000E-05 17:03:03.020 1.500E-01 0.500 F 0.035 0.113 +18° 34' 25.00" 1.000E-01 0.500 F 0.274 -0.007 o 691 0.23 Yes No
2018GE5 O C K 2018-04-21.47457 1.000E-05 16:02:28.280 1.500E-01 0.500 F 0.015 0.483 -05° 46' 12.70" 1.000E-01 0.500 F 0.282 0.027 o 691 1.03 Yes No
2018GE5 O C K 2018-04-21.47862 1.000E-05 16:02:26.700 1.500E-01 0.500 F 0.015 0.259 -05° 46' 43.40" 1.000E-01 0.500 F 0.282 -0.335 o 691 0.89 Yes No
2018GT1 O C K 2018-04-21.48699 1.000E-05 14:03:25.300 1.500E-01 0.500 F 0.197 0.223 +21° 55' 53.60" 1.000E-01 0.500 F 0.364 -0.176 o 691 0.57 Yes No
2018GT1 O C K 2018-04-21.48941 1.000E-05 14:03:25.720 1.500E-01 0.500 F 0.197 0.274 +21° 56' 03.10" 1.000E-01 0.500 F 0.364 -0.200 o 691 0.68 Yes No
2018GT1 O C K 2018-04-21.49182 1.000E-05 14:03:26.070 1.500E-01 0.500 F 0.197 -0.634 +21° 56' 12.30" 1.000E-01 0.500 F 0.364 -0.484 o 691 1.61 Yes No
2018HK O C K 2018-04-22.41067 1.000E-05 15:18:48.300 1.500E-01 0.500 F 0.107 0.330 -01° 51' 41.30" 1.000E-01 0.500 F 0.197 -0.215 o 691 0.81 Yes No
2018HK O C K 2018-04-22.41426 1.000E-05 15:18:47.620 1.500E-01 0.500 F 0.107 -0.849 -01° 51' 28.50" 1.000E-01 0.500 F 0.197 -0.793 o 691 2.37 Yes No
2018HK O C K 2018-04-22.41785 1.000E-05 15:18:47.010 1.500E-01 0.500 F 0.107 -0.980 -01° 51' 15.00" 1.000E-01 0.500 F 0.197 -0.671 o 691 2.42 Yes No
2018GA4 O C K 2018-04-22.42712 1.000E-05 15:37:53.580 1.500E-01 0.500 F 0.029 0.127 +00° 46' 30.40" 1.000E-01 0.500 F 0.281 0.613 o 691 1.27 Yes No
2018GA4 O C K 2018-04-22.43242 1.000E-05 15:37:55.050 1.500E-01 0.500 F 0.029 0.656 +00° 47' 19.90" 1.000E-01 0.500 F 0.281 0.376 o 691 1.53 Yes No
2018GA4 O C K 2018-04-22.43773 1.000E-05 15:37:56.470 1.500E-01 0.500 F 0.029 0.374 +00° 48' 09.20" 1.000E-01 0.500 F 0.281 -0.160 o 691 0.82 Yes No
2018GH4 O C K 2018-04-22.44291 1.000E-05 14:10:41.200 1.500E-01 0.500 F 0.241 0.268 -06° 02' 58.50" 1.000E-01 0.500 F 0.168 -0.304 o 691 0.91 Yes No
2018GH4 O C K 2018-04-22.45484 1.000E-05 14:10:40.450 1.500E-01 0.500 F 0.241 -0.246 -06° 02' 12.00" 1.000E-01 0.500 F 0.168 0.412 19.9 R 0.70 -1.16 o 691 1.07 Yes Yes
2018GH4 O C K 2018-04-22.46678 1.000E-05 14:10:39.860 1.500E-01 0.500 F 0.241 1.508 -06° 01' 25.30" 1.000E-01 0.500 F 0.168 1.301 18.3 R 0.70 -2.77 o 691 3.65 No No
2013JY35 O C K 2018-04-22.48527 1.000E-05 16:43:14.770 1.500E-01 0.500 F 0.016 0.302 -22° 03' 12.60" 1.000E-01 0.500 F 0.196 -0.106 20.6 R 0.70 0.77 o 691 0.68 Yes Yes
2013JY35 O C K 2018-04-22.48661 1.000E-05 16:43:14.500 1.500E-01 0.500 F 0.016 0.465 -22° 03' 09.50" 1.000E-01 0.500 F 0.196 0.086 20.1 R 0.70 0.27 o 691 0.99 Yes Yes
2013JY35 O C K 2018-04-22.48928 1.000E-05 16:43:13.860 1.500E-01 0.500 F 0.016 -0.628 -22° 03' 03.30" 1.000E-01 0.500 F 0.196 0.491 20.1 R 0.70 0.27 o 691 1.71 Yes Yes
2018GJ2 O C K 2018-04-23.14829 1.000E-05 10:27:00.750 1.500E-01 0.500 F 0.269 -0.491 +06° 14' 45.60" 1.000E-01 0.500 F 0.149 -0.135 o 691 1.05 Yes No
2018GJ2 O C K 2018-04-23.15415 1.000E-05 10:27:01.110 1.500E-01 0.500 F 0.269 -0.427 +06° 14' 32.10" 1.000E-01 0.500 F 0.149 0.134 o 691 0.92 Yes No
2018GJ2 O C K 2018-04-23.16002 1.000E-05 10:27:01.520 1.500E-01 0.500 F 0.269 0.374 +06° 14' 19.10" 1.000E-01 0.500 F 0.149 0.925 o 691 2.05 Yes No
2018GE2 O C K 2018-04-23.16724 1.000E-05 13:41:02.020 1.500E-01 0.500 F 0.261 0.454 -08° 34' 06.90" 1.000E-01 0.500 F 0.121 0.060 o 691 0.92 Yes No
2018GE2 O C K 2018-04-23.17378 1.000E-05 13:41:01.330 1.500E-01 0.500 F 0.261 0.975 -08° 34' 12.90" 1.000E-01 0.500 F 0.121 -0.078 o 691 1.96 Yes No
2018GE2 O C K 2018-04-23.18032 1.000E-05 13:41:00.520 1.500E-01 0.500 F 0.261 -0.109 -08° 34' 18.00" 1.000E-01 0.500 F 0.121 0.649 o 691 1.32 Yes No
2018GG5 O C K 2018-04-23.18809 1.000E-05 10:23:46.010 1.500E-01 0.500 F 0.098 0.053 -06° 02' 50.80" 1.000E-01 0.500 F 0.117 -0.234 o 691 0.48 Yes No
2018GG5 O C K 2018-04-23.19601 1.000E-05 10:23:41.550 1.500E-01 0.500 F 0.098 -0.120 -06° 02' 29.30" 1.000E-01 0.500 F 0.117 0.326 o 691 0.70 Yes No
2018GG5 O C K 2018-04-23.20392 1.000E-05 10:23:37.110 1.500E-01 0.500 F 0.098 -0.087 -06° 02' 08.80" 1.000E-01 0.500 F 0.117 -0.096 o 691 0.26 Yes No
2018GQ2 O C K 2018-04-23.27143 1.000E-05 12:36:07.070 1.500E-01 0.500 F 0.161 0.177 +12° 16' 13.40" 1.000E-01 0.500 F 0.162 0.212 o 691 0.56 Yes No
2018GQ2 O C K 2018-04-23.27735 1.000E-05 12:36:06.140 1.500E-01 0.500 F 0.161 0.025 +12° 16' 05.30" 1.000E-01 0.500 F 0.162 0.048 o 691 0.11 Yes No
2018GQ2 O C K 2018-04-23.28326 1.000E-05 12:36:05.250 1.500E-01 0.500 F 0.161 0.432 +12° 15' 57.30" 1.000E-01 0.500 F 0.162 -0.021 o 691 0.87 Yes No
2018FV4 O C H 2018-04-23.28966 1.000E-05 12:30:52.460 1.500E-01 0.500 F 0.358 0.028 -23° 04' 08.10" 1.000E-01 0.500 F 0.164 0.047 18.6 R 0.70 0.41 o 691 0.11 Yes Yes
2018FV4 O C H 2018-04-23.29156 1.000E-05 12:30:54.130 1.500E-01 0.500 F 0.358 0.299 -23° 04' 08.50" 1.000E-01 0.500 F 0.164 0.194 18.7 R 0.70 0.51 o 691 0.74 Yes Yes
2018FV4 O C H 2018-04-23.29346 1.000E-05 12:30:55.810 1.500E-01 0.500 F 0.358 0.699 -23° 04' 09.40" 1.000E-01 0.500 F 0.164 -0.168 18.0 R 0.70 -0.19 o 691 1.51 Yes Yes
2018GF4 O C K 2018-04-23.30321 1.000E-05 12:46:49.700 1.500E-01 0.500 F 0.141 0.101 -04° 08' 35.80" 1.000E-01 0.500 F 0.153 -0.017 o 691 0.21 Yes No
2018GF4 O C K 2018-04-23.30643 1.000E-05 12:46:51.080 1.500E-01 0.500 F 0.141 -0.050 -04° 08' 41.90" 1.000E-01 0.500 F 0.153 -0.130 o 691 0.28 Yes No
2018GF4 O C K 2018-04-23.30963 1.000E-05 12:46:52.490 1.500E-01 0.500 F 0.141 0.364 -04° 08' 47.80" 1.000E-01 0.500 F 0.153 -0.086 o 691 0.77 Yes No
2018GZ4 O C K 2018-04-23.31415 1.000E-05 11:11:47.880 1.500E-01 0.500 F 0.086 0.375 +05° 16' 21.70" 1.000E-01 0.500 F 0.138 -0.051 o 691 0.77 Yes No
2018GZ4 O C K 2018-04-23.32338 1.000E-05 11:11:47.870 1.500E-01 0.500 F 0.086 0.337 +05° 16' 32.20" 1.000E-01 0.500 F 0.138 0.042 o 691 0.69 Yes No
2018GZ4 O C K 2018-04-23.33260 1.000E-05 11:11:47.830 1.500E-01 0.500 F 0.086 -0.185 +05° 16' 42.30" 1.000E-01 0.500 F 0.138 -0.250 o 691 0.63 Yes No
2018GX4 O C H 2018-04-23.34238 1.000E-05 13:28:08.780 1.500E-01 0.500 F 0.248 -0.295 +12° 08' 39.00" 1.000E-01 0.500 F 0.187 0.057 20.5 R 0.70 0.04 o 691 0.60 Yes Yes
2018GX4 O C H 2018-04-23.34598 1.000E-05 13:28:08.330 1.500E-01 0.500 F 0.248 0.021 +12° 08' 39.10" 1.000E-01 0.500 F 0.187 -0.465 20.5 R 0.70 0.04 o 691 0.93 Yes Yes
2018GX4 O C H 2018-04-23.35138 1.000E-05 13:28:07.610 1.500E-01 0.500 F 0.248 -0.168 +12° 08' 40.40" 1.000E-01 0.500 F 0.187 -0.097 20.7 R 0.70 0.24 o 691 0.39 Yes Yes
2018EE4 O C K 2018-04-23.35425 1.000E-05 12:09:32.470 1.500E-01 0.500 F 0.141 0.041 +28° 57' 28.00" 1.000E-01 0.500 F 0.326 0.002 o 691 0.08 Yes No
2018EE4 O C K 2018-04-23.36101 1.000E-05 12:09:32.240 1.500E-01 0.500 F 0.141 -0.278 +28° 57' 34.70" 1.000E-01 0.500 F 0.326 0.390 o 691 0.96 Yes No
2018EE4 O C K 2018-04-23.36777 1.000E-05 12:09:32.060 1.500E-01 0.500 F 0.141 0.043 +28° 57' 40.50" 1.000E-01 0.500 F 0.326 -0.112 o 691 0.24 Yes No
2018GT3 O C K 2018-04-23.37486 1.000E-05 14:13:01.370 1.500E-01 0.500 F 0.169 0.213 +11° 25' 44.00" 1.000E-01 0.500 F 0.373 -0.188 o 691 0.59 Yes No
2018GT3 O C K 2018-04-23.37916 1.000E-05 14:13:01.020 1.500E-01 0.500 F 0.169 0.118 +11° 26' 15.50" 1.000E-01 0.500 F 0.373 -0.291 o 691 0.66 Yes No
2018GT3 O C K 2018-04-23.38346 1.000E-05 14:13:00.670 1.500E-01 0.500 F 0.169 0.014 +11° 26' 47.50" 1.000E-01 0.500 F 0.373 0.117 o 691 0.25 Yes No
2018FW2 O C K 2018-04-23.39682 1.000E-05 14:29:34.350 1.500E-01 0.500 F 0.304 -0.576 -08° 55' 20.30" 1.000E-01 0.500 F 0.125 0.079 o 691 1.38 Yes No
2018FW2 O C K 2018-04-23.40832 1.000E-05 14:29:36.500 1.500E-01 0.500 F 0.304 0.308 -08° 55' 24.90" 1.000E-01 0.500 F 0.125 0.095 o 691 0.76 Yes No
2018FW2 O C K 2018-04-23.41982 1.000E-05 14:29:38.610 1.500E-01 0.500 F 0.304 0.498 -08° 55' 29.80" 1.000E-01 0.500 F 0.125 -0.221 o 691 1.28 Yes No
2018GT4 O C K 2018-04-23.43159 1.000E-05 15:18:44.920 1.500E-01 0.500 F 0.104 0.163 -19° 04' 19.50" 1.000E-01 0.500 F -0.232 -0.019 o 691 0.68 Yes No
2018GT4 O C K 2018-04-23.43647 1.000E-05 15:18:43.750 1.500E-01 0.500 F 0.104 -1.119 -19° 05' 02.60" 1.000E-01 0.500 F -0.232 8.417 o 691 12.32 No No
2018GT4 O C K 2018-04-23.44136 1.000E-05 15:18:42.870 1.500E-01 0.500 F 0.104 1.716 -19° 05' 44.30" 1.000E-01 0.500 F -0.232 18.339 o 691 26.74 No No
2018EQ4 O C 2018-04-23.44718 1.000E-05 16:39:20.940 1.500E-01 0.500 F 0.035 -0.290 +12° 09' 50.80" 1.000E-01 0.500 F 0.146 -0.168 19.6 V 0.70 -0.43 o 691 0.67 Yes Yes
2018EQ4 O C 2018-04-23.45015 1.000E-05 16:39:20.550 1.500E-01 0.500 F 0.035 -0.341 +12° 09' 51.30" 1.000E-01 0.500 F 0.146 -0.004 19.7 V 0.70 -0.33 o 691 0.69 Yes Yes
2018EQ4 O C 2018-04-23.45312 1.000E-05 16:39:20.150 1.500E-01 0.500 F 0.035 -0.539 +12° 09' 51.60" 1.000E-01 0.500 F 0.146 -0.038 19.5 V 0.70 -0.53 o 691 1.09 Yes Yes
2018GW4 O C K 2018-04-23.45694 1.000E-05 16:43:33.410 1.500E-01 0.500 F 0.057 -0.479 +29° 58' 42.20" 1.000E-01 0.500 F 0.307 -0.289 o 691 1.16 Yes No
2018GW4 O C K 2018-04-23.46153 1.000E-05 16:43:34.570 1.500E-01 0.500 F 0.057 -0.236 +29° 58' 52.20" 1.000E-01 0.500 F 0.307 0.221 o 691 0.66 Yes No
2018GW4 O C K 2018-04-23.46614 1.000E-05 16:43:35.730 1.500E-01 0.500 F 0.057 -0.065 +29° 59' 01.20" 1.000E-01 0.500 F 0.307 -0.300 o 691 0.63 Yes No
2005JY80 O C H 2018-04-23.48930 1.000E-05 20:18:43.210 1.500E-01 0.500 F -0.019 0.206 -05° 23' 16.50" 1.000E-01 0.500 F 0.197 0.233 19.4 R 0.70 0.14 o 691 0.62 Yes Yes
2005JY80 O C H 2018-04-23.49327 1.000E-05 20:18:43.930 1.500E-01 0.500 F -0.019 -0.160 -05° 23' 15.40" 1.000E-01 0.500 F 0.197 0.279 19.4 R 0.70 0.14 o 691 0.65 Yes Yes
2005JY80 O C H 2018-04-23.49591 1.000E-05 20:18:44.430 1.500E-01 0.500 F -0.019 -0.085 -05° 23' 15.00" 1.000E-01 0.500 F 0.197 -0.022 19.1 R 0.70 -0.16 o 691 0.18 Yes Yes
2018HA1 O C K 2018-04-24.15731 1.000E-05 12:46:54.800 1.500E-01 0.500 F 0.337 0.291 -10° 30' 58.00" 1.000E-01 0.500 F 0.109 0.193 o 691 0.71 Yes No
2018HA1 O C K 2018-04-24.17985 1.000E-05 12:46:50.980 1.500E-01 0.500 F 0.337 -0.428 -10° 28' 11.50" 1.000E-01 0.500 F 0.109 0.198 o 691 0.96 Yes No
2018HA1 O C K 2018-04-24.20236 1.000E-05 12:46:47.200 1.500E-01 0.500 F 0.337 -0.398 -10° 25' 25.00" 1.000E-01 0.500 F 0.109 0.226 o 691 0.93 Yes No
2008GH110 O C H 2018-04-24.23996 1.000E-05 13:28:56.640 1.500E-01 0.500 F 0.444 -0.047 +01° 02' 03.40" 1.000E-01 0.500 F 0.170 -0.073 19.0 R 0.70 0.33 o 691 0.18 Yes Yes
2018EE O C K 2018-04-24.24145 1.000E-05 13:19:04.510 1.500E-01 0.500 F 0.139 0.070 +09° 09' 03.00" 1.000E-01 0.500 F 0.127 0.247 o 691 0.51 Yes No
2008GH110 O C H 2018-04-24.25705 1.000E-05 13:28:55.410 1.500E-01 0.500 F 0.444 -0.287 +01° 03' 15.10" 1.000E-01 0.500 F 0.170 -0.356 18.6 R 0.70 -0.07 o 691 0.93 Yes Yes
2018EE O C K 2018-04-24.25854 1.000E-05 13:19:05.280 1.500E-01 0.500 F 0.139 -0.354 +09° 08' 31.40" 1.000E-01 0.500 F 0.127 0.394 o 691 1.06 Yes No
2008GH110 O C H 2018-04-24.27413 1.000E-05 13:28:54.200 1.500E-01 0.500 F 0.444 -0.214 +01° 04' 27.30" 1.000E-01 0.500 F 0.170 -0.042 19.1 R 0.70 0.43 o 691 0.44 Yes Yes
2018EE O C K 2018-04-24.27561 1.000E-05 13:19:06.080 1.500E-01 0.500 F 0.139 -0.284 +09° 07' 59.20" 1.000E-01 0.500 F 0.127 -0.071 o 691 0.59 Yes No
2018CZ13 O C K 2018-04-24.28514 1.000E-05 15:20:13.320 1.500E-01 0.500 F 0.290 0.155 -25° 44' 47.50" 1.000E-01 0.500 F 0.454 -0.121 o 691 0.40 Yes No
2013JN22 O C K 2018-04-24.28841 1.000E-05 14:05:11.510 1.500E-01 0.500 F 0.261 -0.554 +07° 21' 18.20" 1.000E-01 0.500 F 0.173 0.269 o 691 1.25 Yes No
2018CZ13 O C K 2018-04-24.30333 1.000E-05 15:20:19.630 1.500E-01 0.500 F 0.290 -0.351 -25° 44' 47.30" 1.000E-01 0.500 F 0.454 0.244 o 691 0.88 Yes No
2013JN22 O C K 2018-04-24.30665 1.000E-05 14:05:08.670 1.500E-01 0.500 F 0.261 -0.302 +07° 21' 15.70" 1.000E-01 0.500 F 0.173 0.019 o 691 0.61 Yes No
2013JN22 O C K 2018-04-24.32511 1.000E-05 14:05:05.810 1.500E-01 0.500 F 0.261 0.144 +07° 21' 13.20" 1.000E-01 0.500 F 0.173 -0.181 o 691 0.47 Yes No
2018HU1 O C K 2018-04-24.43710 1.000E-05 16:13:30.650 1.500E-01 0.500 F 0.182 -0.287 -01° 08' 14.20" 1.000E-01 0.500 F 0.264 -0.162 o 691 0.67 Yes No
2018HV1 O C K 2018-04-24.44194 1.000E-05 16:26:00.380 1.500E-01 0.500 F 0.154 0.025 +06° 06' 40.30" 1.000E-01 0.500 F 0.198 -0.356 19.4 R 0.70 -0.33 o 691 0.73 Yes Yes
2018HU1 O C K 2018-04-24.44807 1.000E-05 16:13:26.880 1.500E-01 0.500 F 0.182 0.628 -01° 08' 37.00" 1.000E-01 0.500 F 0.264 0.310 o 691 1.43 Yes No
2018HV1 O C K 2018-04-24.45292 1.000E-05 16:26:04.290 1.500E-01 0.500 F 0.154 0.061 +06° 07' 30.50" 1.000E-01 0.500 F 0.198 -0.047 19.0 R 0.70 -0.73 o 691 0.16 Yes Yes
2018HU1 O C K 2018-04-24.45906 1.000E-05 16:13:22.970 1.500E-01 0.500 F 0.182 -0.522 -01° 09' 01.50" 1.000E-01 0.500 F 0.264 -0.888 o 691 2.10 Yes No
2018HV1 O C K 2018-04-24.46391 1.000E-05 16:26:08.180 1.500E-01 0.500 F 0.154 -0.412 +06° 08' 20.80" 1.000E-01 0.500 F 0.198 0.279 19.3 R 0.70 -0.43 o 691 1.02 Yes Yes
2018EQ4 O C H 2018-04-24.46925 1.000E-05 16:37:14.000 1.500E-01 0.500 F 0.035 0.146 +12° 11' 32.30" 1.000E-01 0.500 F 0.146 0.144 19.4 R 0.70 -0.24 o 691 0.41 Yes Yes
2018EQ4 O C H 2018-04-24.47555 1.000E-05 16:37:13.170 1.500E-01 0.500 F 0.035 0.053 +12° 11' 32.50" 1.000E-01 0.500 F 0.146 -0.122 19.6 R 0.70 -0.04 o 691 0.27 Yes Yes
2018EQ4 O C H 2018-04-24.48184 1.000E-05 16:37:12.330 1.500E-01 0.500 F 0.035 -0.215 +12° 11' 33.10" 1.000E-01 0.500 F 0.146 0.019 19.6 R 0.70 -0.04 o 691 0.43 Yes Yes
2008GH110 O C K 2018-04-25.13253 1.000E-05 13:28:03.220 1.500E-01 0.500 F 0.199 0.103 +02° 03' 32.20" 1.000E-01 0.500 F 0.151 -0.020 o 691 0.21 Yes No
2008GH110 O C K 2018-04-25.13765 1.000E-05 13:28:02.880 1.500E-01 0.500 F 0.199 -0.028 +02° 03' 52.90" 1.000E-01 0.500 F 0.151 -0.088 o 691 0.19 Yes No
2008GH110 O C K 2018-04-25.14275 1.000E-05 13:28:02.540 1.500E-01 0.500 F 0.199 -0.164 +02° 04' 13.80" 1.000E-01 0.500 F 0.151 0.129 o 691 0.41 Yes No
2013JN22 O C K 2018-04-26.16801 1.000E-05 14:00:31.690 1.500E-01 0.500 F 0.194 0.139 +07° 16' 49.30" 1.000E-01 0.500 F 0.139 -0.233 o 691 0.55 Yes No
2013JN22 O C K 2018-04-26.17942 1.000E-05 14:00:30.010 1.500E-01 0.500 F 0.194 0.230 +07° 16' 47.80" 1.000E-01 0.500 F 0.139 0.051 o 691 0.48 Yes No
2013JN22 O C K 2018-04-26.19083 1.000E-05 14:00:28.310 1.500E-01 0.500 F 0.194 0.046 +07° 16' 45.50" 1.000E-01 0.500 F 0.139 -0.460 o 691 0.94 Yes No
2016CX264 O C K 2018-04-26.22041 1.000E-05 14:28:50.580 1.500E-01 0.500 F 0.130 -0.171 -11° 40' 36.60" 1.000E-01 0.500 F 0.016 -0.018 18.8 R 0.70 -0.16 o 691 0.35 Yes Yes
2016CX264 O C K 2018-04-26.22808 1.000E-05 14:28:49.560 1.500E-01 0.500 F 0.130 0.043 -11° 40' 41.10" 1.000E-01 0.500 F 0.016 0.083 18.5 R 0.70 -0.46 o 691 0.19 Yes Yes
2016CX264 O C K 2018-04-26.23575 1.000E-05 14:28:48.520 1.500E-01 0.500 F 0.130 -0.015 -11° 40' 45.50" 1.000E-01 0.500 F 0.016 0.278 18.1 R 0.70 -0.85 o 691 0.56 Yes Yes
2018HH2 O C K 2018-04-26.24698 1.000E-05 15:40:59.850 1.500E-01 0.500 F 0.127 -0.351 +20° 53' 49.70" 1.000E-01 0.500 F 0.257 -0.595 o 691 1.41 Yes No
2018HH2 O C K 2018-04-26.25434 1.000E-05 15:40:55.340 1.500E-01 0.500 F 0.127 0.019 +20° 51' 39.90" 1.000E-01 0.500 F 0.257 -0.164 o 691 0.34 Yes No
2018HH2 O C K 2018-04-26.26170 1.000E-05 15:40:50.750 1.500E-01 0.500 F 0.127 -0.573 +20° 49' 29.70" 1.000E-01 0.500 F 0.257 -0.011 o 691 1.16 Yes No
2018EQ4 O C K 2018-04-26.28301 1.000E-05 16:33:27.920 1.500E-01 0.500 F 0.171 -0.028 +12° 13' 02.00" 1.000E-01 0.500 F 0.148 0.050 o 691 0.12 Yes No
2018EQ4 O C K 2018-04-26.29632 1.000E-05 16:33:26.190 1.500E-01 0.500 F 0.171 0.122 +12° 13' 02.30" 1.000E-01 0.500 F 0.148 -0.072 o 691 0.29 Yes No
2018HB1 O C K 2018-04-26.30755 1.000E-05 15:44:57.900 1.500E-01 0.500 F 0.126 0.581 -01° 28' 17.10" 1.000E-01 0.500 F 0.216 0.003 o 691 1.29 Yes No
2018HB1 O C K 2018-04-26.32814 1.000E-05 15:45:12.820 1.500E-01 0.500 F 0.126 1.764 -01° 31' 43.90" 1.000E-01 0.500 F 0.216 -0.708 o 691 3.54 No No
2013JY35 O C H 2018-04-26.47801 1.000E-05 16:29:29.830 1.500E-01 0.500 F 0.131 0.017 -19° 37' 39.90" 1.000E-01 0.500 F -0.019 -0.007 20.2 R 0.70 0.45 o 691 0.04 Yes Yes
2013JY35 O C H 2018-04-26.48290 1.000E-05 16:29:28.800 1.500E-01 0.500 F 0.131 0.131 -19° 37' 29.00" 1.000E-01 0.500 F -0.019 0.035 20.5 R 0.70 0.75 o 691 0.28 Yes Yes
2018GG5 O C K 2018-05-03.14026 1.000E-05 08:53:57.120 1.500E-01 0.500 F 0.003 -0.157 +01° 30' 05.10" 1.000E-01 0.500 F 0.153 0.275 o 691 0.66 Yes No
2018GG5 O C K 2018-05-03.14452 1.000E-05 08:53:54.950 1.500E-01 0.500 F 0.003 0.115 +01° 30' 16.10" 1.000E-01 0.500 F 0.153 0.177 o 691 0.44 Yes No
2018GG5 O C K 2018-05-03.14879 1.000E-05 08:53:52.790 1.500E-01 0.500 F 0.003 0.605 +01° 30' 27.70" 1.000E-01 0.500 F 0.153 0.655 o 691 1.89 Yes No
2018HQ O C K 2018-05-03.16113 1.000E-05 11:03:14.240 1.500E-01 0.500 F 0.270 -0.056 -23° 34' 13.60" 1.000E-01 0.500 F 0.022 0.380 o 691 0.79 Yes No
2018FO5 O C K 2018-05-03.16884 1.000E-05 09:40:40.350 1.500E-01 0.500 F -0.006 0.737 -00° 27' 56.70" 1.000E-01 0.500 F 0.225 0.060 o 691 1.49 Yes No
2018HQ O C K 2018-05-03.17400 1.000E-05 11:03:09.210 1.500E-01 0.500 F 0.270 0.531 -23° 34' 30.00" 1.000E-01 0.500 F 0.022 -0.824 o 691 2.02 Yes No
2018FO5 O C K 2018-05-03.18180 1.000E-05 09:40:40.620 1.500E-01 0.500 F -0.006 -0.375 -00° 27' 44.70" 1.000E-01 0.500 F 0.225 0.186 o 691 0.84 Yes No
2018GJ1 O C K 2018-05-03.22365 1.000E-05 10:52:57.930 1.500E-01 0.500 F 0.119 -0.200 +09° 31' 04.20" 1.000E-01 0.500 F 0.073 0.066 o 691 0.43 Yes No
2018GR2 O C K 2018-05-03.23787 1.000E-05 11:21:48.670 1.500E-01 0.500 F 0.140 -0.150 +02° 57' 16.60" 1.000E-01 0.500 F 0.086 -0.371 o 691 0.83 Yes No
2018GJ1 O C K 2018-05-03.24282 1.000E-05 10:52:47.600 1.500E-01 0.500 F 0.216 -0.683 +09° 31' 03.20" 1.000E-01 0.500 F 0.095 -0.463 o 691 1.66 Yes No
2018GR2 O C K 2018-05-03.24741 1.000E-05 11:21:41.270 1.500E-01 0.500 F 0.140 -0.451 +02° 56' 13.70" 1.000E-01 0.500 F 0.086 0.034 o 691 0.94 Yes No
2018FS3 O C 2018-05-03.32026 1.000E-05 10:45:06.080 1.500E-01 0.500 F 0.114 -0.511 +28° 02' 50.60" 1.000E-01 0.500 F 0.231 0.568 19.4 V 0.70 0.13 o 691 1.54 Yes Yes
2018FS3 O C 2018-05-03.33683 1.000E-05 10:45:04.300 1.500E-01 0.500 F 0.114 -0.171 +28° 04' 07.80" 1.000E-01 0.500 F 0.231 -0.291 19.6 V 0.70 0.33 o 691 0.68 Yes Yes
2018FS3 O C 2018-05-03.35333 1.000E-05 10:45:02.500 1.500E-01 0.500 F 0.114 -0.826 +28° 05' 25.70" 1.000E-01 0.500 F 0.231 -0.061 19.8 V 0.70 0.53 o 691 1.67 Yes Yes
2015FP118 O C 2018-05-03.37321 1.000E-05 13:46:53.090 1.500E-01 0.500 F 0.173 -0.109 -08° 43' 22.20" 1.000E-01 0.500 F 0.080 0.075 19.9 V 0.70 0.40 o 691 0.27 Yes Yes
2015FP118 O C 2018-05-03.38697 1.000E-05 13:46:51.650 1.500E-01 0.500 F 0.173 -0.028 -08° 43' 09.90" 1.000E-01 0.500 F 0.080 0.023 20.0 V 0.70 0.50 o 691 0.08 Yes Yes
2015FP118 O C 2018-05-03.40079 1.000E-05 13:46:50.210 1.500E-01 0.500 F 0.173 0.074 -08° 42' 57.50" 1.000E-01 0.500 F 0.080 0.001 20.0 V 0.70 0.50 o 691 0.14 Yes Yes
2005JD46 O C 2018-05-03.40982 1.000E-05 14:38:19.470 1.500E-01 0.500 F 0.284 -0.458 -09° 02' 57.10" 1.000E-01 0.500 F 0.114 -0.493 19.9 V 0.70 0.94 o 691 1.36 Yes Yes
2005JD46 O C 2018-05-03.42152 1.000E-05 14:38:17.650 1.500E-01 0.500 F 0.284 -0.083 -09° 03' 01.50" 1.000E-01 0.500 F 0.114 -0.173 19.9 V 0.70 0.94 o 691 0.39 Yes Yes
2005JD46 O C 2018-05-03.43306 1.000E-05 14:38:15.800 1.500E-01 0.500 F 0.284 -0.571 -09° 03' 05.60" 1.000E-01 0.500 F 0.114 0.375 19.7 V 0.70 0.74 o 691 1.38 Yes Yes
2018HQ O C K 2018-05-04.13991 1.000E-05 10:56:58.390 1.500E-01 0.500 F 0.302 0.182 -23° 53' 19.70" 1.000E-01 0.500 F 0.043 0.103 o 691 0.43 Yes No
2018GJ1 O C 2018-05-04.14563 1.000E-05 10:44:50.460 1.500E-01 0.500 F 0.245 -0.292 +09° 30' 34.60" 1.000E-01 0.500 F 0.279 -0.102 18.9 V 0.70 0.23 o 691 0.62 Yes Yes
2018GR2 O C K 2018-05-04.14795 1.000E-05 11:10:07.870 1.500E-01 0.500 F 0.161 -0.190 +01° 08' 52.70" 1.000E-01 0.500 F 0.161 0.041 o 691 0.40 Yes No
2018HQ O C K 2018-05-04.15046 1.000E-05 10:56:54.140 1.500E-01 0.500 F 0.302 -0.247 -23° 53' 32.00" 1.000E-01 0.500 F 0.043 0.016 o 691 0.51 Yes No
2018GJ1 O C 2018-05-04.15613 1.000E-05 10:44:44.510 1.500E-01 0.500 F 0.245 -0.231 +09° 30' 33.70" 1.000E-01 0.500 F 0.279 -0.225 18.7 V 0.70 0.03 o 691 0.65 Yes Yes
2018GR2 O C K 2018-05-04.15863 1.000E-05 11:09:58.370 1.500E-01 0.500 F 0.161 0.117 +01° 07' 30.20" 1.000E-01 0.500 F 0.161 -0.027 o 691 0.25 Yes No
2018HQ O C K 2018-05-04.16115 1.000E-05 10:56:49.900 1.500E-01 0.500 F 0.302 0.238 -23° 53' 44.50" 1.000E-01 0.500 F 0.043 -0.164 o 691 0.60 Yes No
2018GJ1 O C 2018-05-04.16679 1.000E-05 10:44:38.470 1.500E-01 0.500 F 0.245 -0.131 +09° 30' 33.00" 1.000E-01 0.500 F 0.279 -0.086 19.0 V 0.70 0.33 o 691 0.32 Yes Yes
2018GR2 O C K 2018-05-04.16930 1.000E-05 11:09:48.840 1.500E-01 0.500 F 0.161 0.082 +01° 06' 07.90" 1.000E-01 0.500 F 0.161 0.188 o 691 0.42 Yes No
2018GJ2 O C K 2018-05-04.17233 1.000E-05 10:40:03.350 1.500E-01 0.500 F 0.146 0.589 +00° 24' 29.50" 1.000E-01 0.500 F 0.175 0.848 o 691 2.15 Yes No
2018GY4 O C K 2018-05-04.19925 1.000E-05 09:28:01.620 1.500E-01 0.500 F 0.144 0.173 -14° 17' 35.70" 1.000E-01 0.500 F -0.061 0.141 o 691 0.45 Yes No
2018DK3 O C K 2018-05-04.20574 1.000E-05 09:56:45.130 1.500E-01 0.500 F -0.054 0.350 +16° 13' 07.30" 1.000E-01 0.500 F 0.348 0.492 o 691 1.22 Yes No
2018GJ2 O C K 2018-05-04.21735 1.000E-05 10:40:06.350 1.500E-01 0.500 F 0.146 -0.028 +00° 23' 18.60" 1.000E-01 0.500 F 0.175 0.024 20.8 R 0.70 -0.07 o 691 0.08 Yes Yes
2018GY4 O C K 2018-05-04.22122 1.000E-05 09:28:02.450 1.500E-01 0.500 F 0.144 -0.338 -14° 17' 11.10" 1.000E-01 0.500 F -0.061 0.797 o 691 1.74 Yes No
2018DK3 O C K 2018-05-04.22766 1.000E-05 09:56:47.110 1.500E-01 0.500 F -0.054 0.440 +16° 12' 47.90" 1.000E-01 0.500 F 0.348 -0.306 o 691 1.09 Yes No
2010JG88 O C 2018-05-04.24364 1.000E-05 11:53:27.450 1.500E-01 0.500 F 0.195 -0.300 -03° 33' 49.20" 1.000E-01 0.500 F 0.255 0.183 19.7 V 0.70 0.20 o 691 0.71 Yes Yes
2018GS1 O C K 2018-05-04.24364 1.000E-05 11:57:47.090 1.500E-01 0.500 F 0.214 0.140 -04° 05' 38.20" 1.000E-01 0.500 F 0.178 -0.102 o 691 0.36 Yes No
2010JG88 O C 2018-05-04.25685 1.000E-05 11:53:26.510 1.500E-01 0.500 F 0.195 -0.242 -03° 32' 51.20" 1.000E-01 0.500 F 0.255 -0.247 19.8 V 0.70 0.30 o 691 0.71 Yes Yes
2018GS1 O C K 2018-05-04.25685 1.000E-05 11:57:45.190 1.500E-01 0.500 F 0.214 0.252 -04° 06' 21.10" 1.000E-01 0.500 F 0.178 0.347 o 691 0.88 Yes No
2010JG88 O C 2018-05-04.27004 1.000E-05 11:53:25.560 1.500E-01 0.500 F 0.195 -0.418 -03° 31' 52.40" 1.000E-01 0.500 F 0.255 0.207 19.6 V 0.70 0.10 o 691 0.95 Yes Yes
2018GS1 O C K 2018-05-04.27004 1.000E-05 11:57:43.290 1.500E-01 0.500 F 0.214 0.206 -04° 07' 05.00" 1.000E-01 0.500 F 0.178 -0.302 o 691 0.75 Yes No
2011KR12 O C K 2018-05-04.30006 1.000E-05 13:41:30.960 1.500E-01 0.500 F 0.224 0.051 -21° 12' 07.60" 1.000E-01 0.500 F -0.119 -0.200 o 691 0.41 Yes No
2011KR12 O C K 2018-05-04.31008 1.000E-05 13:41:28.470 1.500E-01 0.500 F 0.224 -0.162 -21° 12' 03.50" 1.000E-01 0.500 F -0.119 -0.055 o 691 0.34 Yes No
2011KR12 O C K 2018-05-04.32010 1.000E-05 13:41:25.980 1.500E-01 0.500 F 0.224 -0.401 -21° 11' 59.20" 1.000E-01 0.500 F -0.119 0.257 o 691 0.95 Yes No
2018GZ3 O C K 2018-05-04.33490 1.000E-05 12:43:37.020 1.500E-01 0.500 F 0.195 0.107 +04° 52' 55.50" 1.000E-01 0.500 F 0.083 0.044 o 691 0.24 Yes No
2018GZ3 O C K 2018-05-04.34828 1.000E-05 12:43:39.120 1.500E-01 0.500 F 0.195 0.027 +04° 53' 31.90" 1.000E-01 0.500 F 0.083 0.078 o 691 0.17 Yes No
2018GZ3 O C K 2018-05-04.36159 1.000E-05 12:43:41.230 1.500E-01 0.500 F 0.195 0.143 +04° 54' 08.20" 1.000E-01 0.500 F 0.083 0.249 o 691 0.59 Yes No
2016CX264 O C 2018-05-04.37308 1.000E-05 14:09:46.390 1.500E-01 0.500 F 0.380 -0.268 -13° 06' 17.80" 1.000E-01 0.500 F 0.155 0.067 19.5 V 0.70 0.16 o 691 0.55 Yes Yes
2016CX264 O C 2018-05-04.38435 1.000E-05 14:09:44.670 1.500E-01 0.500 F 0.380 0.024 -13° 06' 25.10" 1.000E-01 0.500 F 0.155 0.157 19.4 V 0.70 0.06 o 691 0.32 Yes Yes
2016CX264 O C 2018-05-04.39546 1.000E-05 14:09:42.940 1.500E-01 0.500 F 0.380 -0.235 -13° 06' 33.10" 1.000E-01 0.500 F 0.155 -0.571 19.3 V 0.70 -0.04 o 691 1.24 Yes Yes
2018EQ4 O C 2018-05-04.44187 1.000E-05 16:16:16.120 1.500E-01 0.500 F 0.111 -0.203 +11° 56' 33.60" 1.000E-01 0.500 F 0.195 0.033 20.0 V 0.70 -0.17 o 691 0.41 Yes Yes
2018HV2 O C K 2018-05-04.44585 1.000E-05 16:47:31.050 1.500E-01 0.500 F 0.119 -0.157 +16° 24' 51.00" 1.000E-01 0.500 F 0.296 0.154 o 691 0.45 Yes No
2018EQ4 O C 2018-05-04.45107 1.000E-05 16:16:14.910 1.500E-01 0.500 F 0.111 -0.364 +11° 56' 31.10" 1.000E-01 0.500 F 0.195 -0.022 19.9 V 0.70 -0.27 o 691 0.73 Yes Yes
2018HV2 O C K 2018-05-04.45506 1.000E-05 16:47:29.560 1.500E-01 0.500 F 0.119 0.257 +16° 24' 16.20" 1.000E-01 0.500 F 0.296 0.264 o 691 0.75 Yes No
2018EQ4 O C 2018-05-04.46027 1.000E-05 16:16:13.730 1.500E-01 0.500 F 0.111 -0.108 +11° 56' 28.70" 1.000E-01 0.500 F 0.195 0.035 20.1 V 0.70 -0.07 o 691 0.23 Yes Yes
2018HV2 O C K 2018-05-04.46426 1.000E-05 16:47:28.030 1.500E-01 0.500 F 0.119 0.056 +16° 23' 41.00" 1.000E-01 0.500 F 0.296 0.007 o 691 0.11 Yes No
2001SC170 O C K 2018-05-04.46946 1.000E-05 14:24:14.810 1.500E-01 0.500 F 0.061 0.112 +14° 55' 44.40" 1.000E-01 0.500 F 0.234 0.138 o 691 0.36 Yes No
2001SC170 O C K 2018-05-04.47579 1.000E-05 14:24:14.760 1.500E-01 0.500 F 0.061 0.233 +14° 56' 02.20" 1.000E-01 0.500 F 0.234 0.164 o 691 0.57 Yes No
2001SC170 O C K 2018-05-04.48200 1.000E-05 14:24:14.690 1.500E-01 0.500 F 0.061 0.016 +14° 56' 19.40" 1.000E-01 0.500 F 0.234 -0.070 o 691 0.14 Yes No
2018JC O C 2018-05-05.14405 1.000E-05 12:56:57.730 1.500E-01 0.500 F 0.140 -0.987 +18° 57' 19.00" 1.000E-01 0.500 F 0.198 0.050 19.8 V 0.70 0.02 o 691 2.00 Yes Yes
2008GH110 O C K 2018-05-05.14638 1.000E-05 13:20:53.310 1.500E-01 0.500 F 0.185 -0.100 +10° 59' 55.70" 1.000E-01 0.500 F 0.221 0.094 o 691 0.27 Yes No
2001SC170 O C 2018-05-05.14927 1.000E-05 14:24:14.070 1.500E-01 0.500 F 0.015 -0.510 +15° 28' 02.10" 1.000E-01 0.500 F 0.279 -0.119 19.6 V 0.70 -0.09 o 691 1.05 Yes Yes
2018JC O C 2018-05-05.15192 1.000E-05 12:56:55.030 1.500E-01 0.500 F 0.140 -0.669 +18° 56' 33.70" 1.000E-01 0.500 F 0.198 0.092 19.7 V 0.70 -0.08 o 691 1.37 Yes Yes
2008GH110 O C K 2018-05-05.15425 1.000E-05 13:20:53.050 1.500E-01 0.500 F 0.185 -0.067 +11° 00' 15.10" 1.000E-01 0.500 F 0.221 0.150 o 691 0.32 Yes No
2001SC170 O C 2018-05-05.15713 1.000E-05 14:24:13.990 1.500E-01 0.500 F 0.015 -0.408 +15° 28' 24.80" 1.000E-01 0.500 F 0.279 -0.108 19.8 V 0.70 0.11 o 691 0.85 Yes Yes
2018JC O C 2018-05-05.15979 1.000E-05 12:56:52.380 1.500E-01 0.500 F 0.140 0.489 +18° 55' 47.60" 1.000E-01 0.500 F 0.198 -0.557 19.5 V 0.70 -0.28 o 691 1.50 Yes Yes
2008GH110 O C K 2018-05-05.16212 1.000E-05 13:20:52.800 1.500E-01 0.500 F 0.185 0.134 +11° 00' 34.10" 1.000E-01 0.500 F 0.221 -0.179 o 691 0.46 Yes No
2001SC170 O C 2018-05-05.16503 1.000E-05 14:24:13.920 1.500E-01 0.500 F 0.015 -0.112 +15° 28' 47.90" 1.000E-01 0.500 F 0.279 0.194 19.8 V 0.70 0.11 o 691 0.45 Yes Yes
2018FJ4 O C K 2018-05-05.17177 1.000E-05 11:27:10.380 1.500E-01 0.500 F 0.217 -0.010 +02° 29' 30.20" 1.000E-01 0.500 F 0.242 -0.512 o 691 1.03 Yes No
2018GR2 O C K 2018-05-05.18085 1.000E-05 10:54:32.900 1.500E-01 0.500 F 0.277 -0.334 -01° 16' 06.10" 1.000E-01 0.500 F 0.148 0.083 o 691 0.72 Yes No
2018GJ1 O C 2018-05-05.18293 1.000E-05 10:35:09.820 1.500E-01 0.500 F 0.219 -0.419 +09° 28' 34.80" 1.000E-01 0.500 F 0.276 -0.514 19.4 V 0.70 0.72 o 691 1.33 Yes Yes
2018GJ1 O C 2018-05-05.18397 1.000E-05 10:35:09.210 1.500E-01 0.500 F 0.219 -0.256 +09° 28' 35.10" 1.000E-01 0.500 F 0.276 -0.027 19.2 V 0.70 0.52 o 691 0.52 Yes Yes
2018FJ4 O C K 2018-05-05.18625 1.000E-05 11:27:09.530 1.500E-01 0.500 F 0.217 0.123 +02° 29' 37.50" 1.000E-01 0.500 F 0.242 -0.140 o 691 0.37 Yes No
2018GR2 O C K 2018-05-05.19534 1.000E-05 10:54:17.800 1.500E-01 0.500 F 0.277 0.117 -01° 18' 19.10" 1.000E-01 0.500 F 0.148 0.005 o 691 0.24 Yes No
2018GJ1 O C 2018-05-05.19735 1.000E-05 10:35:01.190 1.500E-01 0.500 F 0.243 -0.762 +09° 28' 32.50" 1.000E-01 0.500 F 0.276 -0.187 19.0 V 0.70 0.32 o 691 1.58 Yes Yes
2018FJ4 O C K 2018-05-05.20057 1.000E-05 11:27:08.690 1.500E-01 0.500 F 0.217 0.239 +02° 29' 44.60" 1.000E-01 0.500 F 0.242 0.117 o 691 0.53 Yes No
2018GR2 O C K 2018-05-05.20968 1.000E-05 10:54:02.790 1.500E-01 0.500 F 0.277 -0.303 -01° 20' 31.20" 1.000E-01 0.500 F 0.148 -0.272 o 691 0.85 Yes No
2018FS3 O C H 2018-05-05.21456 1.000E-05 10:41:56.810 1.500E-01 0.500 F 0.143 0.513 +30° 44' 19.60" 1.000E-01 0.500 F 0.400 -0.289 19.1 R 0.70 0.24 o 691 1.18 Yes Yes
2018FS3 O C H 2018-05-05.22625 1.000E-05 10:41:55.180 1.500E-01 0.500 F 0.143 -0.248 +30° 45' 21.00" 1.000E-01 0.500 F 0.400 -0.116 19.0 R 0.70 0.14 o 691 0.55 Yes Yes
2018FS3 O C H 2018-05-05.23783 1.000E-05 10:41:53.660 1.500E-01 0.500 F 0.143 0.042 +30° 46' 21.60" 1.000E-01 0.500 F 0.400 -0.046 19.2 R 0.70 0.34 o 691 0.13 Yes Yes
2018GS1 O C K 2018-05-05.25913 1.000E-05 11:55:37.750 1.500E-01 0.500 F 0.225 -0.513 -05° 00' 25.90" 1.000E-01 0.500 F 0.219 0.710 20.6 R 0.70 -0.24 o 691 1.80 Yes Yes

[1-200] [201-400] [401-600] [601-800] [801-1000] [1001-1200] [1201-1400] [1401-1600] [1601-1800] [1801-2000] [2001-2200] [2201-2400] [2401-2600] [2601-2800] [2801-3000] [3001-3200] [3201-3400] [3401-3600] [3601-3800] [3801-4000] [4001-4200] [4201-4400] [4401-4600] [4601-4800] [4801-5000] [5001-5200] [5201-5400] [5401-5600] [5601-5800] [5801-6000] [6001-6200] [6201-6400] [6401-6600] [6601-6800] [6801-7000] [7001-7200] [7201-7400] [7401-7600] [7601-7800] [7801-8000] [8001-8200] [8201-8400] [8401-8600] [8601-8800] [8801-9000] [9001-9200] [9201-9400] [9401-9600] [9601-9800] [9801-10000] [10001-10200] [10201-10400] [10401-10600] [10601-10800] [10801-11000] [11001-11200] [11201-11400] [11401-11600] [11601-11800] [11801-12000] [12001-12200] [12201-12400] [12401-12600] [12601-12800] [12801-13000] [13001-13200] [13201-13400] [13401-13600] [13601-13800] [13801-14000] [14001-14200] [14201-14400] [14401-14600] [14601-14800] [14801-15000] [15001-15200] [15201-15400] [15401-15600] [15601-15800] [15801-16000] [16001-16200] [16201-16400] [16401-16600] [16601-16800] [16801-17000] [17001-17200] [17201-17400] [17401-17600] [17601-17800] [17801-18000] [18001-18200] [18201-18400] [18401-18600] [18601-18800] [18801-19000] [19001-19200] [19201-19400] [19401-19600] [19601-19800] [19801-20000] [20001-20200] [20201-20400] [20401-20600] [20601-20800] [20801-21000] [21001-21200] [21201-21400] [21401-21600] [21601-21800] [21801-22000] [22001-22200] [22201-22400] [22401-22600] [22601-22800] [22801-23000] [23001-23200] [23201-23400] [23401-23600] [23601-23800] [23801-24000] [24001-24200] [24201-24400] [24401-24600] [24601-24800] [24801-25000] [25001-25200] [25201-25400] [25401-25600] [25601-25800] [25801-26000] [26001-26200] [26201-26400] [26401-26600] [26601-26800] [26801-27000] [27001-27200] [27201-27400] [27401-27600] [27601-27800] [27801-28000] [28001-28200] [28201-28400] [28401-28600] [28601-28800] [28801-29000] [29001-29200] [29201-29400] [29401-29600] [29601-29800] [29801-30000] [30001-30200] [30201-30400] [30401-30600] [30601-30800] [30801-31000] [31001-31200] [31201-31400] [31401-31600] [31601-31800] [31801-32000] [32001-32200] [32201-32400] [32401-32600] [32601-32800] [32801-33000] [33001-33200] [33201-33400] [33401-33600] [33601-33800] [33801-34000] [34001-34200] [34201-34400] [34401-34600] [34601-34800] [34801-35000] [35001-35200] [35201-35400] [35401-35600] [35601-35800] [35801-36000] [36001-36200] [36201-36400] [36401-36600] [36601-36800] [36801-37000] [37001-37200] [37201-37400] [37401-37600] [37601-37800] [37801-38000] [38001-38200] [38201-38400] [38401-38600] [38601-38800] [38801-39000] [39001-39200] [39201-39400] [39401-39600] [39601-39800] [39801-40000] [40001-40200] [40201-40400] [40401-40600] [40601-40800] [40801-41000] [41001-41200] [41201-41400] [41401-41600] [41601-41800] [41801-42000] [42001-42200] [42201-42400] [42401-42600] [42601-42800] [42801-43000] [43001-43200] [43201-43400] [43401-43600] [43601-43800] [43801-44000] [44001-44200] [44201-44400] [44401-44600] [44601-44800] [44801-45000] [45001-45200] [45201-45400] [45401-45600] [45601-45800] [45801-46000] [46001-46200] [46201-46400] [46401-46600] [46601-46800] [46801-47000] [47001-47200] [47201-47400] [47401-47600] [47601-47800] [47801-48000] [48001-48200] [48201-48400] [48401-48600] [48601-48800] [48801-49000] [49001-49200] [49201-49400] [49401-49600] [49601-49800] [49801-50000] [50001-50200] [50201-50388]